createdAt,value
2018-07-31T00:00:15.442Z,996.9
2018-07-31T00:03:15.625Z,996.8
2018-07-31T00:06:14.937Z,996.8
2018-07-31T00:09:15.780Z,996.8
2018-07-31T00:12:14.953Z,996.8
2018-07-31T00:15:15.140Z,996.8
2018-07-31T00:18:15.408Z,996.9
2018-07-31T00:21:15.396Z,996.8
2018-07-31T00:24:15.565Z,996.8
2018-07-31T00:27:15.655Z,996.8
2018-07-31T00:30:15.729Z,996.8
2018-07-31T00:33:15.144Z,996.7
2018-07-31T00:36:15.279Z,996.7
2018-07-31T00:39:15.315Z,996.7
2018-07-31T00:42:15.480Z,996.8
2018-07-31T00:45:15.545Z,996.8
2018-07-31T00:48:15.699Z,996.8
2018-07-31T00:51:15.688Z,996.7
2018-07-31T00:54:15.819Z,996.7
2018-07-31T00:57:14.891Z,996.7
2018-07-31T01:00:15.059Z,996.8
2018-07-31T01:03:15.351Z,996.7
2018-07-31T01:06:15.494Z,996.7
2018-07-31T01:09:15.767Z,996.7
2018-07-31T01:12:14.830Z,996.7
2018-07-31T01:15:14.895Z,996.7
2018-07-31T01:18:15.044Z,996.7
2018-07-31T01:21:15.162Z,996.7
2018-07-31T01:24:15.237Z,996.7
2018-07-31T01:27:15.425Z,996.7
2018-07-31T01:30:15.537Z,996.7
2018-07-31T01:33:15.772Z,996.7
2018-07-31T01:36:14.860Z,996.8
2018-07-31T01:39:14.973Z,996.8
2018-07-31T01:42:15.005Z,996.8
2018-07-31T01:45:15.086Z,996.7
2018-07-31T01:48:15.276Z,996.7
2018-07-31T01:51:15.425Z,996.7
2018-07-31T01:54:15.462Z,996.7
2018-07-31T01:57:15.531Z,996.7
2018-07-31T02:00:15.673Z,996.7
2018-07-31T02:03:15.786Z,996.7
2018-07-31T02:06:14.865Z,996.7
2018-07-31T02:09:15.483Z,996.7
2018-07-31T02:12:15.701Z,996.6
2018-07-31T02:15:14.915Z,996.5
2018-07-31T02:18:15.142Z,996.6
2018-07-31T02:21:15.242Z,996.6
2018-07-31T02:24:15.333Z,996.6
2018-07-31T02:27:15.353Z,996.6
2018-07-31T02:30:15.483Z,996.6
2018-07-31T02:33:15.670Z,996.7
2018-07-31T02:36:15.877Z,996.7
2018-07-31T02:39:14.971Z,996.6
2018-07-31T02:42:15.154Z,996.6
2018-07-31T02:45:15.292Z,996.6
2018-07-31T02:48:15.411Z,996.6
2018-07-31T02:51:15.594Z,996.6
2018-07-31T02:54:15.645Z,996.5
2018-07-31T02:57:15.833Z,996.5
2018-07-31T03:00:14.875Z,996.5
2018-07-31T03:03:15.026Z,996.4
2018-07-31T03:06:15.160Z,996.5
2018-07-31T03:09:15.265Z,996.5
2018-07-31T03:12:15.404Z,996.5
2018-07-31T03:15:15.638Z,996.6
2018-07-31T03:18:15.874Z,996.6
2018-07-31T03:21:15.006Z,996.6
2018-07-31T03:24:15.143Z,996.6
2018-07-31T03:27:15.222Z,996.6
2018-07-31T03:30:15.385Z,996.7
2018-07-31T03:33:15.531Z,996.6
2018-07-31T03:36:15.630Z,996.6
2018-07-31T03:39:15.634Z,996.6
2018-07-31T03:42:14.901Z,996.6
2018-07-31T03:45:15.068Z,996.6
2018-07-31T03:48:15.235Z,996.6
2018-07-31T03:51:15.325Z,996.6
2018-07-31T03:54:15.408Z,996.6
2018-07-31T03:57:15.506Z,996.6
2018-07-31T04:00:15.806Z,996.6
2018-07-31T04:03:14.958Z,996.7
2018-07-31T04:06:15.171Z,996.7
2018-07-31T04:09:15.225Z,996.7
2018-07-31T04:12:15.304Z,996.7
2018-07-31T04:15:15.307Z,996.7
2018-07-31T04:18:15.578Z,996.7
2018-07-31T04:21:15.651Z,996.7
2018-07-31T04:24:15.860Z,996.7
2018-07-31T04:27:15.195Z,996.7
2018-07-31T04:30:15.433Z,996.7
2018-07-31T04:33:15.644Z,996.8
2018-07-31T04:36:15.860Z,996.8
2018-07-31T04:39:15.030Z,996.8
2018-07-31T04:42:15.260Z,996.8
2018-07-31T04:45:15.448Z,996.8
2018-07-31T04:48:15.436Z,996.9
2018-07-31T04:51:15.504Z,996.9
2018-07-31T04:54:15.709Z,996.9
2018-07-31T04:57:15.755Z,996.9
2018-07-31T05:00:16.213Z,996.9
2018-07-31T05:03:15.412Z,996.9
2018-07-31T05:06:15.898Z,996.9
2018-07-31T05:09:15.030Z,997.0
2018-07-31T05:12:15.203Z,997.0
2018-07-31T05:15:15.473Z,996.9
2018-07-31T05:18:15.156Z,996.9
2018-07-31T05:21:15.406Z,997.0
2018-07-31T05:24:15.584Z,997.0
2018-07-31T05:27:15.810Z,997.0
2018-07-31T05:30:14.941Z,997.1
2018-07-31T05:33:14.987Z,997.1
2018-07-31T05:36:15.133Z,997.1
2018-07-31T05:39:15.298Z,997.1
2018-07-31T05:42:15.359Z,997.2
2018-07-31T05:45:15.525Z,997.2
2018-07-31T05:48:15.856Z,997.3
2018-07-31T05:51:15.199Z,997.3
2018-07-31T05:54:15.471Z,997.2
2018-07-31T05:57:15.623Z,997.3
2018-07-31T06:00:15.945Z,997.3
2018-07-31T06:03:15.358Z,997.3
2018-07-31T06:06:15.891Z,997.4
2018-07-31T06:09:15.325Z,997.3
2018-07-31T06:12:15.819Z,997.4
2018-07-31T06:15:15.404Z,997.4
2018-07-31T06:18:16.029Z,997.4
2018-07-31T06:21:15.643Z,997.4
2018-07-31T06:24:15.350Z,997.4
2018-07-31T06:27:15.943Z,997.5
2018-07-31T06:30:15.537Z,997.5
2018-07-31T06:33:16.317Z,997.5
2018-07-31T06:36:15.891Z,997.5
2018-07-31T06:39:15.435Z,997.5
2018-07-31T06:42:16.030Z,997.6
2018-07-31T06:45:15.640Z,997.6
2018-07-31T06:48:16.198Z,997.6
2018-07-31T06:51:15.884Z,997.6
2018-07-31T06:54:15.494Z,997.6
2018-07-31T06:57:16.068Z,997.7
2018-07-31T07:00:15.666Z,997.7
2018-07-31T07:03:16.147Z,997.7
2018-07-31T07:06:16.014Z,997.7
2018-07-31T07:09:15.431Z,997.7
2018-07-31T07:12:15.941Z,997.7
2018-07-31T07:15:15.419Z,997.7
2018-07-31T07:18:15.988Z,997.8
2018-07-31T07:21:15.437Z,997.8
2018-07-31T07:24:15.876Z,997.8
2018-07-31T07:27:15.386Z,997.8
2018-07-31T07:30:15.886Z,997.8
2018-07-31T07:33:15.294Z,997.8
2018-07-31T07:36:15.740Z,997.8
2018-07-31T07:39:15.143Z,997.7
2018-07-31T07:42:15.554Z,997.7
2018-07-31T07:45:15.944Z,997.7
2018-07-31T07:48:15.544Z,997.7
2018-07-31T07:51:15.986Z,997.7
2018-07-31T07:54:15.592Z,997.7
2018-07-31T07:57:16.077Z,997.7
2018-07-31T08:00:15.553Z,997.7
2018-07-31T08:03:15.986Z,997.8
2018-07-31T08:06:15.440Z,997.8
2018-07-31T08:09:15.930Z,997.9
2018-07-31T08:12:15.571Z,997.9
2018-07-31T08:15:16.168Z,997.9
2018-07-31T08:18:15.739Z,997.8
2018-07-31T08:21:15.345Z,997.8
2018-07-31T08:24:15.976Z,997.8
2018-07-31T08:27:15.533Z,997.8
2018-07-31T08:30:16.178Z,997.8
2018-07-31T08:33:15.854Z,997.9
2018-07-31T08:36:15.572Z,997.9
2018-07-31T08:39:16.130Z,997.9
2018-07-31T08:42:15.650Z,998.0
2018-07-31T08:45:15.398Z,997.9
2018-07-31T08:48:16.149Z,997.9
2018-07-31T08:51:15.817Z,998.0
2018-07-31T08:54:15.441Z,997.9
2018-07-31T08:57:15.985Z,998.0
2018-07-31T09:00:15.608Z,998.0
2018-07-31T09:03:16.158Z,997.9
2018-07-31T09:06:15.729Z,997.9
2018-07-31T09:09:15.332Z,997.9
2018-07-31T09:12:16.087Z,997.9
2018-07-31T09:15:15.623Z,997.9
2018-07-31T09:18:15.250Z,997.9
2018-07-31T09:21:15.759Z,997.8
2018-07-31T09:24:15.347Z,997.8
2018-07-31T09:27:15.951Z,997.8
2018-07-31T09:30:15.611Z,997.8
2018-07-31T09:33:16.211Z,997.8
2018-07-31T09:36:15.886Z,997.7
2018-07-31T09:39:15.587Z,997.7
2018-07-31T09:42:16.403Z,997.7
2018-07-31T09:45:16.291Z,997.7
2018-07-31T09:48:16.587Z,997.7
2018-07-31T09:51:16.770Z,997.8
2018-07-31T09:54:15.960Z,997.8
2018-07-31T09:57:16.531Z,997.8
2018-07-31T10:00:17.288Z,997.8
2018-07-31T10:03:17.017Z,997.8
2018-07-31T10:06:17.115Z,997.7
2018-07-31T10:09:17.620Z,997.7
2018-07-31T10:12:17.296Z,997.7
2018-07-31T10:15:18.305Z,997.6
2018-07-31T10:18:17.871Z,997.6
2018-07-31T10:21:18.264Z,997.6
2018-07-31T10:24:19.124Z,997.7
2018-07-31T10:27:18.873Z,997.7
2018-07-31T10:30:18.915Z,997.6
2018-07-31T10:33:19.080Z,997.6
2018-07-31T10:36:19.025Z,997.7
2018-07-31T10:39:19.217Z,997.6
2018-07-31T10:42:19.061Z,997.6
2018-07-31T10:45:18.169Z,997.7
2018-07-31T10:48:17.845Z,997.6
2018-07-31T10:51:17.351Z,997.6
2018-07-31T10:54:18.289Z,997.5
2018-07-31T10:57:18.577Z,997.6
2018-07-31T11:00:18.696Z,997.6
2018-07-31T11:03:18.836Z,997.5
2018-07-31T11:06:19.304Z,997.5
2018-07-31T11:09:18.543Z,997.5
2018-07-31T11:12:19.068Z,997.5
2018-07-31T11:15:19.587Z,997.5
2018-07-31T11:18:19.515Z,997.5
2018-07-31T11:21:19.272Z,997.5
2018-07-31T11:24:18.982Z,997.5
2018-07-31T11:27:18.795Z,997.4
2018-07-31T11:30:18.609Z,997.5
2018-07-31T11:33:19.038Z,997.5
2018-07-31T11:36:19.384Z,997.5
2018-07-31T11:39:18.736Z,997.5
2018-07-31T11:42:19.079Z,997.4
2018-07-31T11:45:19.255Z,997.3
2018-07-31T11:48:17.611Z,997.4
2018-07-31T11:51:16.727Z,997.3
2018-07-31T11:54:16.057Z,997.3
2018-07-31T11:57:15.860Z,997.2
2018-07-31T12:00:15.448Z,997.2
2018-07-31T12:03:16.104Z,997.2
2018-07-31T12:06:15.615Z,997.2
2018-07-31T12:09:16.173Z,997.2
2018-07-31T12:12:15.835Z,997.2
2018-07-31T12:15:15.467Z,997.2
2018-07-31T12:18:16.254Z,997.2
2018-07-31T12:21:15.912Z,997.1
2018-07-31T12:24:15.419Z,997.2
2018-07-31T12:27:16.067Z,997.1
2018-07-31T12:30:15.629Z,997.1
2018-07-31T12:33:15.909Z,997.2
2018-07-31T12:36:15.376Z,997.1
2018-07-31T12:39:15.893Z,997.2
2018-07-31T12:42:15.444Z,997.2
2018-07-31T12:45:16.002Z,997.2
2018-07-31T12:48:15.648Z,997.2
2018-07-31T12:51:16.225Z,997.1
2018-07-31T12:54:15.826Z,997.1
2018-07-31T12:57:15.504Z,997.1
2018-07-31T13:00:16.116Z,997.1
2018-07-31T13:03:15.681Z,997.1
2018-07-31T13:06:16.166Z,997.2
2018-07-31T13:09:15.786Z,997.1
2018-07-31T13:12:15.443Z,997.2
2018-07-31T13:15:15.970Z,997.0
2018-07-31T13:18:15.555Z,997.1
2018-07-31T13:21:16.154Z,997.1
2018-07-31T13:24:15.798Z,997.0
2018-07-31T13:27:15.477Z,997.0
2018-07-31T13:30:15.961Z,997.0
2018-07-31T13:33:15.678Z,996.9
2018-07-31T13:36:15.500Z,996.9
2018-07-31T13:39:16.165Z,997.0
2018-07-31T13:42:15.636Z,996.9
2018-07-31T13:45:15.380Z,996.9
2018-07-31T13:48:16.035Z,996.9
2018-07-31T13:51:15.562Z,996.9
2018-07-31T13:54:16.274Z,997.0
2018-07-31T13:57:15.778Z,997.0
2018-07-31T14:00:15.291Z,996.8
2018-07-31T14:03:15.397Z,996.9
2018-07-31T14:06:15.911Z,996.9
2018-07-31T14:09:15.549Z,996.9
2018-07-31T14:12:16.075Z,997.0
2018-07-31T14:15:15.576Z,997.0
2018-07-31T14:18:16.265Z,997.0
2018-07-31T14:21:15.904Z,996.9
2018-07-31T14:24:15.557Z,996.9
2018-07-31T14:27:16.088Z,996.8
2018-07-31T14:30:15.710Z,996.8
2018-07-31T14:33:15.276Z,996.9
2018-07-31T14:36:15.905Z,996.9
2018-07-31T14:39:15.757Z,997.0
2018-07-31T14:42:15.332Z,996.9
2018-07-31T14:45:15.865Z,997.1
2018-07-31T14:48:15.630Z,996.9
2018-07-31T14:51:16.131Z,996.9
2018-07-31T14:54:15.573Z,997.0
2018-07-31T14:57:16.198Z,997.0
2018-07-31T15:00:15.732Z,997.0
2018-07-31T15:03:15.303Z,997.0
2018-07-31T15:06:16.043Z,997.1
2018-07-31T15:09:15.688Z,997.0
2018-07-31T15:12:15.339Z,997.0
2018-07-31T15:15:15.872Z,996.9
2018-07-31T15:18:15.556Z,997.0
2018-07-31T15:21:16.222Z,997.0
2018-07-31T15:24:15.905Z,997.0
2018-07-31T15:27:15.487Z,997.0
2018-07-31T15:30:16.256Z,997.0
2018-07-31T15:33:15.897Z,996.9
2018-07-31T15:36:15.842Z,997.0
2018-07-31T15:39:15.532Z,996.9
2018-07-31T15:42:16.081Z,997.0
2018-07-31T15:45:15.751Z,997.0
2018-07-31T15:48:15.489Z,997.0
2018-07-31T15:51:16.073Z,997.1
2018-07-31T15:54:15.795Z,997.1
2018-07-31T15:57:15.400Z,997.1
2018-07-31T16:00:16.001Z,997.0
2018-07-31T16:03:16.234Z,997.1
2018-07-31T16:06:15.815Z,997.1
2018-07-31T16:09:15.495Z,997.1
2018-07-31T16:12:16.062Z,997.1
2018-07-31T16:15:15.747Z,997.1
2018-07-31T16:18:15.379Z,997.1
2018-07-31T16:21:16.077Z,997.1
2018-07-31T16:24:15.785Z,997.1
2018-07-31T16:27:15.521Z,997.1
2018-07-31T16:30:16.030Z,997.1
2018-07-31T16:33:15.648Z,997.1
2018-07-31T16:36:16.305Z,997.1
2018-07-31T16:39:15.840Z,997.1
2018-07-31T16:42:15.508Z,997.1
2018-07-31T16:45:16.005Z,997.2
2018-07-31T16:48:15.513Z,997.1
2018-07-31T16:51:16.403Z,997.1
2018-07-31T16:54:16.056Z,997.1
2018-07-31T16:57:15.673Z,997.1
2018-07-31T17:00:16.348Z,997.1
2018-07-31T17:03:15.947Z,997.1
2018-07-31T17:06:15.451Z,997.1
2018-07-31T17:09:16.016Z,997.2
2018-07-31T17:12:15.644Z,997.2
2018-07-31T17:15:16.359Z,997.2
2018-07-31T17:18:15.919Z,997.2
2018-07-31T17:21:15.432Z,997.3
2018-07-31T17:24:16.062Z,997.3
2018-07-31T17:27:15.678Z,997.3
2018-07-31T17:30:15.443Z,997.4
2018-07-31T17:33:16.056Z,997.4
2018-07-31T17:36:15.764Z,997.4
2018-07-31T17:39:15.891Z,997.4
2018-07-31T17:42:15.383Z,997.4
2018-07-31T17:45:16.086Z,997.4
2018-07-31T17:48:15.588Z,997.4
2018-07-31T17:51:16.221Z,997.4
2018-07-31T17:54:15.883Z,997.4
2018-07-31T17:57:15.381Z,997.4
2018-07-31T18:00:16.092Z,997.4
2018-07-31T18:03:16.130Z,997.5
2018-07-31T18:06:15.811Z,997.5
2018-07-31T18:09:15.242Z,997.5
2018-07-31T18:12:15.987Z,997.5
2018-07-31T18:15:15.441Z,997.5
2018-07-31T18:18:16.261Z,997.6
2018-07-31T18:21:15.928Z,997.6
2018-07-31T18:24:15.367Z,997.6
2018-07-31T18:27:15.981Z,997.6
2018-07-31T18:30:15.462Z,997.6
2018-07-31T18:33:16.189Z,997.7
2018-07-31T18:36:15.856Z,997.6
2018-07-31T18:39:15.414Z,997.7
2018-07-31T18:42:16.126Z,997.7
2018-07-31T18:45:15.588Z,997.7
2018-07-31T18:48:16.151Z,997.7
2018-07-31T18:51:15.824Z,997.8
2018-07-31T18:54:15.388Z,997.8
2018-07-31T18:57:16.028Z,997.8
2018-07-31T19:00:15.673Z,998.0
2018-07-31T19:03:15.343Z,998.0
2018-07-31T19:06:15.959Z,998.1
2018-07-31T19:09:15.400Z,998.1
2018-07-31T19:12:16.270Z,998.1
2018-07-31T19:15:15.913Z,998.2
2018-07-31T19:18:15.701Z,998.2
2018-07-31T19:21:16.133Z,998.2
2018-07-31T19:24:15.510Z,998.3
2018-07-31T19:27:16.136Z,998.3
2018-07-31T19:30:15.655Z,998.3
2018-07-31T19:33:16.203Z,998.4
2018-07-31T19:36:15.734Z,998.5
2018-07-31T19:39:15.195Z,998.5
2018-07-31T19:42:16.107Z,998.5
2018-07-31T19:45:15.565Z,998.6
2018-07-31T19:48:15.315Z,998.6
2018-07-31T19:51:15.931Z,998.6
2018-07-31T19:54:15.298Z,998.7
2018-07-31T19:57:15.966Z,998.8
2018-07-31T20:00:15.414Z,998.7
2018-07-31T20:03:15.919Z,998.8
2018-07-31T20:06:15.374Z,998.9
2018-07-31T20:09:15.867Z,998.9
2018-07-31T20:12:15.253Z,998.9
2018-07-31T20:15:15.853Z,999.0
2018-07-31T20:18:15.300Z,999.0
2018-07-31T20:21:15.914Z,999.0
2018-07-31T20:24:15.460Z,999.0
2018-07-31T20:27:16.205Z,999.1
2018-07-31T20:30:15.811Z,999.1
2018-07-31T20:33:15.355Z,999.1
2018-07-31T20:36:15.376Z,999.1
2018-07-31T20:39:16.269Z,999.1
2018-07-31T20:42:15.936Z,999.1
2018-07-31T20:45:15.541Z,999.1
2018-07-31T20:48:16.191Z,999.1
2018-07-31T20:51:15.698Z,999.1
2018-07-31T20:54:15.324Z,999.2
2018-07-31T20:57:16.142Z,999.2
2018-07-31T21:00:16.053Z,999.2
2018-07-31T21:03:15.663Z,999.2
2018-07-31T21:09:16.000Z,999.2
2018-07-31T21:12:15.663Z,999.3
2018-07-31T21:15:16.280Z,999.3
2018-07-31T21:18:16.168Z,999.2
2018-07-31T21:21:16.011Z,999.3
2018-07-31T21:24:15.729Z,999.3
2018-07-31T21:27:15.340Z,999.3
2018-07-31T21:30:16.153Z,999.3
2018-07-31T21:33:15.662Z,999.2
2018-07-31T21:36:16.208Z,999.2
2018-07-31T21:39:15.849Z,999.3
2018-07-31T21:42:15.425Z,999.3
2018-07-31T21:45:16.220Z,999.3
2018-07-31T21:48:16.000Z,999.3
2018-07-31T21:51:15.556Z,999.4
2018-07-31T21:54:16.060Z,999.4
2018-07-31T21:57:15.640Z,999.4
2018-07-31T22:00:15.397Z,999.4
2018-07-31T22:03:15.701Z,999.4
2018-07-31T22:06:15.383Z,999.5
2018-07-31T22:09:16.104Z,999.4
2018-07-31T22:12:15.967Z,999.4
2018-07-31T22:15:15.593Z,999.4
2018-07-31T22:18:15.461Z,999.5
2018-07-31T22:21:16.237Z,999.5
2018-07-31T22:24:15.981Z,999.5
2018-07-31T22:27:15.565Z,999.5
2018-07-31T22:30:16.259Z,999.5
2018-07-31T22:33:15.738Z,999.4
2018-07-31T22:36:15.199Z,999.5
2018-07-31T22:39:16.098Z,999.5
2018-07-31T22:42:15.589Z,999.5
2018-07-31T22:45:16.212Z,999.5
2018-07-31T22:48:15.692Z,999.5
2018-07-31T22:51:16.181Z,999.6
2018-07-31T22:54:15.717Z,999.7
2018-07-31T22:57:15.800Z,999.6
2018-07-31T23:00:15.474Z,999.7
2018-07-31T23:03:15.527Z,999.6
2018-07-31T23:06:15.342Z,999.6
2018-07-31T23:09:15.905Z,999.6
2018-07-31T23:12:15.399Z,999.7
2018-07-31T23:15:16.203Z,999.6
2018-07-31T23:18:15.868Z,999.7
2018-07-31T23:21:15.423Z,999.7
2018-07-31T23:24:16.043Z,999.8
2018-07-31T23:27:15.591Z,999.8
2018-07-31T23:30:15.315Z,999.7
2018-07-31T23:33:15.128Z,999.8
2018-07-31T23:36:15.239Z,999.9
2018-07-31T23:39:16.126Z,999.9
2018-07-31T23:42:15.577Z,999.9
2018-07-31T23:45:15.185Z,999.9
2018-07-31T23:48:15.745Z,999.9
2018-07-31T23:51:15.227Z,999.9
2018-07-31T23:54:15.411Z,999.9
2018-07-31T23:57:15.323Z,999.9
